Atlantica — V7NB5 — position and weather

sailwx.info

Track history (hours):
 
Tides and Currents Weather Stations Pressure Air Temp Water Temp Dewpoint Dewpoint Depression Visibility Wind Speed Wind Dir Waves Ship Positions

Atlantica

Last reported at 2018-Apr-13 13:32 UTC. Time now 2018-Apr-19 21:29 UTC.
Position N 25°41' W 080°15'.

Length 45 m; draft 2.9 m.

Type: Pleasure craft. MMSI: 538070397.

Date/timePositionNaut miles runAvg speedWind from/ knotsBaromVisibWave heightAir tempDewpointWater temp
2018-Apr-13 13:32N 25°41' W 080°15'0 0.0
2018-Apr-13 13:29N 25°41' W 080°15'0 0.0
2018-Apr-13 12:59N 25°41' W 080°15'2 5.1
2018-Apr-13 12:30N 25°41' W 080°13'4 8.5
2018-Apr-13 12:01N 25°45' W 080°11'  
2018-Apr-10 00:25N 25°47' W 080°11'0 0.0
2018-Apr-10 00:00N 25°47' W 080°11'0 0.0
2018-Apr-09 23:30N 25°47' W 080°11'0 0.0
2018-Apr-09 23:00N 25°47' W 080°11'0 0.0
2018-Apr-09 22:30N 25°47' W 080°11'2 4.3
2018-Apr-09 22:00N 25°45' W 080°11'1 1.4
2018-Apr-09 21:30N 25°44' W 080°11'0 0.0
2018-Apr-09 21:00N 25°44' W 080°11'0 0.0
2018-Apr-09 20:30N 25°44' W 080°11'0 0.0
2018-Apr-09 20:00N 25°44' W 080°11'0 0.0
2018-Apr-09 19:30N 25°44' W 080°11'1 1.2
2018-Apr-09 19:00N 25°44' W 080°11'4 8.9
2018-Apr-09 18:30N 25°40' W 080°12'4 7.6
2018-Apr-09 18:00N 25°39' W 080°08'510.5
2018-Apr-09 17:30N 25°44' W 080°05'4 7.0
2018-Apr-09 17:00N 25°46' W 080°08'3 5.2
2018-Apr-09 16:30N 25°47' W 080°11'0 0.0
2018-Apr-09 16:00N 25°47' W 080°11'0 0.0
2018-Apr-09 15:30N 25°47' W 080°11'0 0.0
2018-Apr-09 15:00N 25°47' W 080°11'0 0.0
2018-Apr-09 14:30N 25°47' W 080°11'  
Track history (hours):
 
Tides and Currents Weather Stations Pressure Air Temp Water Temp Dewpoint Dewpoint Depression Visibility Wind Speed Wind Dir Waves Ship Positions

Atlantica

Last reported at 2018-Apr-13 13:32 UTC. Time now 2018-Apr-19 21:29 UTC.
Position N 25°41' W 080°15'.

Length 45 m; draft 2.9 m.

Type: Pleasure craft. MMSI: 538070397.

Date/timePositionNaut miles runAvg speedWind from/ knotsBaromVisibWave heightAir tempDewpointWater temp
2018-Apr-13 13:32N 25°41' W 080°15'0 0.0
2018-Apr-13 13:29N 25°41' W 080°15'0 0.0
2018-Apr-13 12:59N 25°41' W 080°15'2 5.1
2018-Apr-13 12:30N 25°41' W 080°13'4 8.5
2018-Apr-13 12:01N 25°45' W 080°11'  
2018-Apr-10 00:25N 25°47' W 080°11'0 0.0
2018-Apr-10 00:00N 25°47' W 080°11'0 0.0
2018-Apr-09 23:30N 25°47' W 080°11'0 0.0
2018-Apr-09 23:00N 25°47' W 080°11'0 0.0
2018-Apr-09 22:30N 25°47' W 080°11'2 4.3
2018-Apr-09 22:00N 25°45' W 080°11'1 1.4
2018-Apr-09 21:30N 25°44' W 080°11'0 0.0
2018-Apr-09 21:00N 25°44' W 080°11'0 0.0
2018-Apr-09 20:30N 25°44' W 080°11'0 0.0
2018-Apr-09 20:00N 25°44' W 080°11'0 0.0
2018-Apr-09 19:30N 25°44' W 080°11'1 1.2
2018-Apr-09 19:00N 25°44' W 080°11'4 8.9
2018-Apr-09 18:30N 25°40' W 080°12'4 7.6
2018-Apr-09 18:00N 25°39' W 080°08'510.5
2018-Apr-09 17:30N 25°44' W 080°05'4 7.0
2018-Apr-09 17:00N 25°46' W 080°08'3 5.2
2018-Apr-09 16:30N 25°47' W 080°11'0 0.0
2018-Apr-09 16:00N 25°47' W 080°11'0 0.0
2018-Apr-09 15:30N 25°47' W 080°11'0 0.0
2018-Apr-09 15:00N 25°47' W 080°11'0 0.0
2018-Apr-09 14:30N 25°47' W 080°11'  

Dump ship's entire track history